sensor_id;sensor_type;location;lat;lon;timestamp;P1;durP1;ratioP1;P2;durP2;ratioP2
59374;SDS011;45172;55.006;73.460;2023-05-16T00:01:15;73.47;;;33.15;;
59374;SDS011;45172;55.006;73.460;2023-05-16T00:03:42;67.65;;;31.67;;
59374;SDS011;45172;55.006;73.460;2023-05-16T00:06:08;73.70;;;49.67;;
59374;SDS011;45172;55.006;73.460;2023-05-16T00:08:34;63.53;;;30.48;;
59374;SDS011;45172;55.006;73.460;2023-05-16T00:11:00;60.35;;;28.13;;
59374;SDS011;45172;55.006;73.460;2023-05-16T00:13:28;62.22;;;26.88;;
59374;SDS011;45172;55.006;73.460;2023-05-16T00:15:54;58.83;;;26.48;;
59374;SDS011;45172;55.006;73.460;2023-05-16T00:18:21;53.28;;;27.05;;
59374;SDS011;45172;55.006;73.460;2023-05-16T00:20:47;52.17;;;25.92;;
59374;SDS011;45172;55.006;73.460;2023-05-16T00:23:14;62.88;;;24.60;;
59374;SDS011;45172;55.006;73.460;2023-05-16T00:25:41;52.00;;;26.88;;
59374;SDS011;45172;55.006;73.460;2023-05-16T00:28:08;62.58;;;42.20;;
59374;SDS011;45172;55.006;73.460;2023-05-16T00:30:34;69.22;;;41.88;;
59374;SDS011;45172;55.006;73.460;2023-05-16T00:33:01;54.47;;;29.25;;
59374;SDS011;45172;55.006;73.460;2023-05-16T00:35:27;69.90;;;42.63;;
59374;SDS011;45172;55.006;73.460;2023-05-16T00:37:53;58.55;;;29.55;;
59374;SDS011;45172;55.006;73.460;2023-05-16T00:40:19;57.15;;;30.08;;
59374;SDS011;45172;55.006;73.460;2023-05-16T00:42:45;68.88;;;46.67;;
59374;SDS011;45172;55.006;73.460;2023-05-16T00:45:11;62.95;;;32.38;;
59374;SDS011;45172;55.006;73.460;2023-05-16T00:47:38;88.63;;;40.83;;
59374;SDS011;45172;55.006;73.460;2023-05-16T00:50:06;68.78;;;48.47;;
59374;SDS011;45172;55.006;73.460;2023-05-16T00:52:33;76.30;;;48.25;;
59374;SDS011;45172;55.006;73.460;2023-05-16T00:55:01;64.90;;;32.78;;
59374;SDS011;45172;55.006;73.460;2023-05-16T00:57:28;72.47;;;32.22;;
59374;SDS011;45172;55.006;73.460;2023-05-16T00:59:55;76.28;;;47.13;;
59374;SDS011;45172;55.006;73.460;2023-05-16T01:02:21;65.57;;;43.55;;
59374;SDS011;45172;55.006;73.460;2023-05-16T01:04:47;65.05;;;43.10;;
59374;SDS011;45172;55.006;73.460;2023-05-16T01:07:13;64.82;;;42.35;;
59374;SDS011;45172;55.006;73.460;2023-05-16T01:09:40;66.78;;;42.60;;
59374;SDS011;45172;55.006;73.460;2023-05-16T01:15:13;75.97;;;47.33;;
59374;SDS011;45172;55.006;73.460;2023-05-16T01:28:47;79.03;;;46.37;;
59374;SDS011;45172;55.006;73.460;2023-05-16T01:31:16;96.60;;;65.25;;
59374;SDS011;45172;55.006;73.460;2023-05-16T01:33:42;103.53;;;65.60;;
59374;SDS011;45172;55.006;73.460;2023-05-16T01:44:32;93.65;;;60.88;;
59374;SDS011;45172;55.006;73.460;2023-05-16T01:47:03;97.22;;;59.08;;
59374;SDS011;45172;55.006;73.460;2023-05-16T01:49:34;87.57;;;58.63;;
59374;SDS011;45172;55.006;73.460;2023-05-16T01:52:05;88.47;;;55.05;;
59374;SDS011;45172;55.006;73.460;2023-05-16T01:54:36;80.47;;;51.60;;
59374;SDS011;45172;55.006;73.460;2023-05-16T01:57:06;80.30;;;49.67;;
59374;SDS011;45172;55.006;73.460;2023-05-16T01:59:34;84.28;;;47.80;;
59374;SDS011;45172;55.006;73.460;2023-05-16T02:02:02;70.38;;;44.50;;
59374;SDS011;45172;55.006;73.460;2023-05-16T02:04:29;75.57;;;43.03;;
59374;SDS011;45172;55.006;73.460;2023-05-16T02:06:55;75.13;;;41.10;;
59374;SDS011;45172;55.006;73.460;2023-05-16T02:09:21;77.45;;;40.80;;
59374;SDS011;45172;55.006;73.460;2023-05-16T02:11:47;67.45;;;39.30;;
59374;SDS011;45172;55.006;73.460;2023-05-16T02:14:13;69.63;;;38.30;;
59374;SDS011;45172;55.006;73.460;2023-05-16T02:16:40;60.58;;;37.50;;
59374;SDS011;45172;55.006;73.460;2023-05-16T02:19:06;62.80;;;38.90;;
59374;SDS011;45172;55.006;73.460;2023-05-16T02:21:31;68.28;;;38.30;;
59374;SDS011;45172;55.006;73.460;2023-05-16T02:23:57;58.45;;;37.03;;
59374;SDS011;45172;55.006;73.460;2023-05-16T02:26:24;60.30;;;35.47;;
59374;SDS011;45172;55.006;73.460;2023-05-16T02:28:50;65.30;;;35.15;;
59374;SDS011;45172;55.006;73.460;2023-05-16T02:31:29;56.40;;;34.83;;
59374;SDS011;45172;55.006;73.460;2023-05-16T02:33:56;54.90;;;35.20;;
59374;SDS011;45172;55.006;73.460;2023-05-16T02:36:23;57.55;;;35.97;;
59374;SDS011;45172;55.006;73.460;2023-05-16T02:38:50;61.72;;;33.63;;
59374;SDS011;45172;55.006;73.460;2023-05-16T02:41:17;50.17;;;31.75;;
59374;SDS011;45172;55.006;73.460;2023-05-16T02:43:43;49.80;;;30.02;;
59374;SDS011;45172;55.006;73.460;2023-05-16T02:48:52;51.53;;;27.77;;
59374;SDS011;45172;55.006;73.460;2023-05-16T02:51:19;42.75;;;27.23;;
59374;SDS011;45172;55.006;73.460;2023-05-16T02:53:47;35.92;;;24.95;;
59374;SDS011;45172;55.006;73.460;2023-05-16T02:56:13;44.28;;;25.67;;
59374;SDS011;45172;55.006;73.460;2023-05-16T02:58:39;42.72;;;24.88;;
59374;SDS011;45172;55.006;73.460;2023-05-16T03:01:07;39.20;;;23.45;;
59374;SDS011;45172;55.006;73.460;2023-05-16T03:03:35;40.50;;;23.58;;
59374;SDS011;45172;55.006;73.460;2023-05-16T03:06:02;37.67;;;23.75;;
59374;SDS011;45172;55.006;73.460;2023-05-16T03:08:28;36.83;;;23.17;;
59374;SDS011;45172;55.006;73.460;2023-05-16T03:11:00;43.08;;;22.58;;
59374;SDS011;45172;55.006;73.460;2023-05-16T03:13:26;35.17;;;21.05;;
59374;SDS011;45172;55.006;73.460;2023-05-16T03:15:55;33.80;;;20.30;;
59374;SDS011;45172;55.006;73.460;2023-05-16T03:18:21;34.50;;;18.38;;
59374;SDS011;45172;55.006;73.460;2023-05-16T03:20:47;25.88;;;17.58;;
59374;SDS011;45172;55.006;73.460;2023-05-16T03:23:14;34.45;;;18.50;;
59374;SDS011;45172;55.006;73.460;2023-05-16T03:25:40;22.92;;;16.65;;
59374;SDS011;45172;55.006;73.460;2023-05-16T03:28:07;27.17;;;17.10;;
59374;SDS011;45172;55.006;73.460;2023-05-16T03:30:33;24.45;;;16.88;;
59374;SDS011;45172;55.006;73.460;2023-05-16T03:33:00;23.35;;;14.82;;
59374;SDS011;45172;55.006;73.460;2023-05-16T03:35:26;25.73;;;13.15;;
59374;SDS011;45172;55.006;73.460;2023-05-16T03:37:53;22.17;;;14.00;;
59374;SDS011;45172;55.006;73.460;2023-05-16T03:40:19;26.13;;;13.88;;
59374;SDS011;45172;55.006;73.460;2023-05-16T03:42:46;18.98;;;12.52;;
59374;SDS011;45172;55.006;73.460;2023-05-16T03:45:12;21.60;;;12.02;;
59374;SDS011;45172;55.006;73.460;2023-05-16T03:47:38;20.10;;;10.80;;
59374;SDS011;45172;55.006;73.460;2023-05-16T03:50:04;17.92;;;11.30;;
59374;SDS011;45172;55.006;73.460;2023-05-16T03:52:32;13.35;;;10.43;;
59374;SDS011;45172;55.006;73.460;2023-05-16T03:54:58;14.82;;;8.98;;
59374;SDS011;45172;55.006;73.460;2023-05-16T03:57:26;19.23;;;9.48;;
59374;SDS011;45172;55.006;73.460;2023-05-16T03:59:53;8.77;;;7.10;;
59374;SDS011;45172;55.006;73.460;2023-05-16T04:02:20;32.65;;;7.18;;
59374;SDS011;45172;55.006;73.460;2023-05-16T04:04:46;12.77;;;6.75;;
59374;SDS011;45172;55.006;73.460;2023-05-16T04:07:12;12.82;;;6.47;;
59374;SDS011;45172;55.006;73.460;2023-05-16T04:09:38;13.02;;;6.90;;
59374;SDS011;45172;55.006;73.460;2023-05-16T04:12:04;8.20;;;6.20;;
59374;SDS011;45172;55.006;73.460;2023-05-16T04:14:31;8.10;;;5.60;;
59374;SDS011;45172;55.006;73.460;2023-05-16T04:17:00;10.40;;;4.68;;
59374;SDS011;45172;55.006;73.460;2023-05-16T04:19:26;6.57;;;3.60;;
59374;SDS011;45172;55.006;73.460;2023-05-16T04:21:52;9.18;;;3.95;;
59374;SDS011;45172;55.006;73.460;2023-05-16T04:24:18;10.88;;;3.72;;
59374;SDS011;45172;55.006;73.460;2023-05-16T04:26:44;8.13;;;3.75;;
59374;SDS011;45172;55.006;73.460;2023-05-16T04:29:10;7.78;;;4.05;;
59374;SDS011;45172;55.006;73.460;2023-05-16T04:31:36;7.45;;;3.47;;
59374;SDS011;45172;55.006;73.460;2023-05-16T04:34:03;9.27;;;3.60;;
59374;SDS011;45172;55.006;73.460;2023-05-16T04:36:29;7.72;;;3.30;;
59374;SDS011;45172;55.006;73.460;2023-05-16T04:38:55;8.13;;;3.53;;
59374;SDS011;45172;55.006;73.460;2023-05-16T04:41:22;47.72;;;40.00;;
59374;SDS011;45172;55.006;73.460;2023-05-16T04:43:48;10.85;;;5.80;;
59374;SDS011;45172;55.006;73.460;2023-05-16T04:46:14;12.60;;;4.13;;
59374;SDS011;45172;55.006;73.460;2023-05-16T04:48:40;19.80;;;9.40;;
59374;SDS011;45172;55.006;73.460;2023-05-16T04:51:06;10.20;;;4.93;;
59374;SDS011;45172;55.006;73.460;2023-05-16T04:53:32;10.68;;;4.40;;
59374;SDS011;45172;55.006;73.460;2023-05-16T04:55:58;11.23;;;3.78;;
59374;SDS011;45172;55.006;73.460;2023-05-16T04:58:25;8.55;;;3.78;;
59374;SDS011;45172;55.006;73.460;2023-05-16T05:00:51;7.13;;;3.60;;
59374;SDS011;45172;55.006;73.460;2023-05-16T05:03:17;27.20;;;15.73;;
59374;SDS011;45172;55.006;73.460;2023-05-16T05:05:43;7.78;;;4.00;;
59374;SDS011;45172;55.006;73.460;2023-05-16T05:08:15;10.23;;;4.00;;
59374;SDS011;45172;55.006;73.460;2023-05-16T05:10:41;6.22;;;3.20;;
59374;SDS011;45172;55.006;73.460;2023-05-16T05:13:07;9.27;;;3.00;;
59374;SDS011;45172;55.006;73.460;2023-05-16T05:15:33;10.70;;;3.50;;
59374;SDS011;45172;55.006;73.460;2023-05-16T05:17:59;5.93;;;3.45;;
59374;SDS011;45172;55.006;73.460;2023-05-16T05:20:25;5.07;;;2.53;;
59374;SDS011;45172;55.006;73.460;2023-05-16T05:22:51;12.25;;;3.38;;
59374;SDS011;45172;55.006;73.460;2023-05-16T05:25:17;8.40;;;3.55;;
59374;SDS011;45172;55.006;73.460;2023-05-16T05:27:44;6.50;;;3.17;;
59374;SDS011;45172;55.006;73.460;2023-05-16T05:30:10;13.38;;;3.70;;
59374;SDS011;45172;55.006;73.460;2023-05-16T05:32:36;16.02;;;3.13;;
59374;SDS011;45172;55.006;73.460;2023-05-16T05:35:03;5.70;;;2.30;;
59374;SDS011;45172;55.006;73.460;2023-05-16T05:37:29;5.75;;;2.55;;
59374;SDS011;45172;55.006;73.460;2023-05-16T05:39:55;5.15;;;2.40;;
59374;SDS011;45172;55.006;73.460;2023-05-16T05:42:22;9.07;;;3.03;;
59374;SDS011;45172;55.006;73.460;2023-05-16T05:44:47;23.30;;;3.17;;
59374;SDS011;45172;55.006;73.460;2023-05-16T05:47:13;13.77;;;4.90;;
59374;SDS011;45172;55.006;73.460;2023-05-16T05:49:40;12.85;;;3.45;;
59374;SDS011;45172;55.006;73.460;2023-05-16T05:52:06;12.55;;;3.70;;
59374;SDS011;45172;55.006;73.460;2023-05-16T05:54:32;13.80;;;4.70;;
59374;SDS011;45172;55.006;73.460;2023-05-16T05:56:58;16.30;;;5.80;;
59374;SDS011;45172;55.006;73.460;2023-05-16T05:59:24;20.92;;;5.95;;
59374;SDS011;45172;55.006;73.460;2023-05-16T06:01:51;18.70;;;5.85;;
59374;SDS011;45172;55.006;73.460;2023-05-16T06:04:20;21.08;;;4.93;;
59374;SDS011;45172;55.006;73.460;2023-05-16T06:06:46;7.65;;;3.55;;
59374;SDS011;45172;55.006;73.460;2023-05-16T06:09:12;15.73;;;3.75;;
59374;SDS011;45172;55.006;73.460;2023-05-16T06:11:40;11.80;;;4.13;;
59374;SDS011;45172;55.006;73.460;2023-05-16T06:14:06;7.97;;;3.95;;
59374;SDS011;45172;55.006;73.460;2023-05-16T06:16:32;12.75;;;4.40;;
59374;SDS011;45172;55.006;73.460;2023-05-16T06:18:58;11.40;;;4.28;;
59374;SDS011;45172;55.006;73.460;2023-05-16T06:21:25;10.02;;;4.00;;
59374;SDS011;45172;55.006;73.460;2023-05-16T06:23:50;13.88;;;5.63;;
59374;SDS011;45172;55.006;73.460;2023-05-16T06:26:17;9.93;;;4.38;;
59374;SDS011;45172;55.006;73.460;2023-05-16T06:28:43;9.38;;;3.63;;
59374;SDS011;45172;55.006;73.460;2023-05-16T06:31:09;11.45;;;3.00;;
59374;SDS011;45172;55.006;73.460;2023-05-16T06:33:35;9.75;;;2.85;;
59374;SDS011;45172;55.006;73.460;2023-05-16T06:36:02;4.75;;;1.90;;
59374;SDS011;45172;55.006;73.460;2023-05-16T06:38:27;8.05;;;3.15;;
59374;SDS011;45172;55.006;73.460;2023-05-16T06:40:54;13.07;;;5.50;;
59374;SDS011;45172;55.006;73.460;2023-05-16T06:43:20;7.57;;;4.07;;
59374;SDS011;45172;55.006;73.460;2023-05-16T06:45:46;19.05;;;3.70;;
59374;SDS011;45172;55.006;73.460;2023-05-16T06:48:12;12.25;;;2.55;;
59374;SDS011;45172;55.006;73.460;2023-05-16T06:50:42;8.98;;;2.30;;
59374;SDS011;45172;55.006;73.460;2023-05-16T06:53:11;8.07;;;2.38;;
59374;SDS011;45172;55.006;73.460;2023-05-16T06:55:37;9.70;;;1.65;;
59374;SDS011;45172;55.006;73.460;2023-05-16T06:58:03;11.25;;;1.52;;
59374;SDS011;45172;55.006;73.460;2023-05-16T07:00:29;6.50;;;1.25;;
59374;SDS011;45172;55.006;73.460;2023-05-16T07:02:55;9.52;;;1.60;;
59374;SDS011;45172;55.006;73.460;2023-05-16T07:05:22;15.77;;;2.25;;
59374;SDS011;45172;55.006;73.460;2023-05-16T07:07:47;5.55;;;1.60;;
59374;SDS011;45172;55.006;73.460;2023-05-16T07:10:14;10.98;;;1.60;;
59374;SDS011;45172;55.006;73.460;2023-05-16T07:12:40;9.85;;;2.05;;
59374;SDS011;45172;55.006;73.460;2023-05-16T07:15:08;9.38;;;2.58;;
59374;SDS011;45172;55.006;73.460;2023-05-16T07:17:34;6.78;;;2.17;;
59374;SDS011;45172;55.006;73.460;2023-05-16T07:20:02;10.93;;;2.22;;
59374;SDS011;45172;55.006;73.460;2023-05-16T07:22:29;7.53;;;1.83;;
59374;SDS011;45172;55.006;73.460;2023-05-16T07:24:55;4.93;;;1.40;;
59374;SDS011;45172;55.006;73.460;2023-05-16T07:27:25;6.85;;;1.70;;
59374;SDS011;45172;55.006;73.460;2023-05-16T07:29:52;8.10;;;2.42;;
59374;SDS011;45172;55.006;73.460;2023-05-16T07:32:18;9.77;;;2.85;;
59374;SDS011;45172;55.006;73.460;2023-05-16T07:34:45;11.98;;;3.40;;
59374;SDS011;45172;55.006;73.460;2023-05-16T07:37:11;9.95;;;3.03;;
59374;SDS011;45172;55.006;73.460;2023-05-16T07:39:38;12.00;;;1.30;;
59374;SDS011;45172;55.006;73.460;2023-05-16T07:42:06;18.85;;;2.60;;
59374;SDS011;45172;55.006;73.460;2023-05-16T07:44:33;18.88;;;2.20;;
59374;SDS011;45172;55.006;73.460;2023-05-16T07:46:59;13.88;;;2.40;;
59374;SDS011;45172;55.006;73.460;2023-05-16T07:49:25;11.05;;;1.90;;
59374;SDS011;45172;55.006;73.460;2023-05-16T07:51:51;11.75;;;1.95;;
59374;SDS011;45172;55.006;73.460;2023-05-16T07:54:17;12.80;;;1.90;;
59374;SDS011;45172;55.006;73.460;2023-05-16T07:56:43;15.80;;;3.50;;
59374;SDS011;45172;55.006;73.460;2023-05-16T07:59:09;5.00;;;1.67;;
59374;SDS011;45172;55.006;73.460;2023-05-16T08:01:35;7.50;;;1.20;;
59374;SDS011;45172;55.006;73.460;2023-05-16T08:04:02;22.25;;;2.25;;
59374;SDS011;45172;55.006;73.460;2023-05-16T08:06:28;22.65;;;3.25;;
59374;SDS011;45172;55.006;73.460;2023-05-16T08:08:54;18.98;;;3.10;;
59374;SDS011;45172;55.006;73.460;2023-05-16T08:11:20;43.22;;;4.40;;
59374;SDS011;45172;55.006;73.460;2023-05-16T08:13:49;20.17;;;3.45;;
59374;SDS011;45172;55.006;73.460;2023-05-16T08:16:15;20.38;;;4.35;;
59374;SDS011;45172;55.006;73.460;2023-05-16T08:18:41;36.40;;;5.50;;
59374;SDS011;45172;55.006;73.460;2023-05-16T08:21:08;17.27;;;4.75;;
59374;SDS011;45172;55.006;73.460;2023-05-16T08:23:34;27.73;;;3.97;;
59374;SDS011;45172;55.006;73.460;2023-05-16T08:26:01;10.13;;;3.42;;
59374;SDS011;45172;55.006;73.460;2023-05-16T08:28:28;19.27;;;3.70;;
59374;SDS011;45172;55.006;73.460;2023-05-16T08:30:54;20.35;;;4.15;;
59374;SDS011;45172;55.006;73.460;2023-05-16T08:33:20;20.85;;;3.83;;
59374;SDS011;45172;55.006;73.460;2023-05-16T08:35:46;15.13;;;3.80;;
59374;SDS011;45172;55.006;73.460;2023-05-16T08:38:13;16.48;;;2.92;;
59374;SDS011;45172;55.006;73.460;2023-05-16T08:40:41;19.77;;;3.55;;
59374;SDS011;45172;55.006;73.460;2023-05-16T08:43:09;24.35;;;4.30;;
59374;SDS011;45172;55.006;73.460;2023-05-16T08:45:36;18.65;;;3.60;;
59374;SDS011;45172;55.006;73.460;2023-05-16T08:48:02;25.73;;;4.18;;
59374;SDS011;45172;55.006;73.460;2023-05-16T08:50:30;22.02;;;3.65;;
59374;SDS011;45172;55.006;73.460;2023-05-16T08:52:57;14.38;;;3.05;;
59374;SDS011;45172;55.006;73.460;2023-05-16T08:55:32;32.03;;;4.40;;
59374;SDS011;45172;55.006;73.460;2023-05-16T08:57:59;34.05;;;4.45;;
59374;SDS011;45172;55.006;73.460;2023-05-16T09:00:26;27.25;;;4.10;;
59374;SDS011;45172;55.006;73.460;2023-05-16T09:02:52;23.02;;;3.65;;
59374;SDS011;45172;55.006;73.460;2023-05-16T09:05:20;16.38;;;3.35;;
59374;SDS011;45172;55.006;73.460;2023-05-16T09:07:47;28.00;;;3.53;;
59374;SDS011;45172;55.006;73.460;2023-05-16T09:10:14;25.65;;;2.92;;
59374;SDS011;45172;55.006;73.460;2023-05-16T09:12:41;27.17;;;3.90;;
59374;SDS011;45172;55.006;73.460;2023-05-16T09:15:08;30.65;;;3.40;;
59374;SDS011;45172;55.006;73.460;2023-05-16T09:17:36;9.27;;;2.13;;
59374;SDS011;45172;55.006;73.460;2023-05-16T09:20:13;24.05;;;1.55;;
59374;SDS011;45172;55.006;73.460;2023-05-16T09:22:55;21.13;;;3.00;;
59374;SDS011;45172;55.006;73.460;2023-05-16T09:25:23;7.95;;;1.55;;
59374;SDS011;45172;55.006;73.460;2023-05-16T09:27:54;9.95;;;1.10;;
59374;SDS011;45172;55.006;73.460;2023-05-16T09:30:22;32.60;;;2.47;;
59374;SDS011;45172;55.006;73.460;2023-05-16T09:32:53;14.82;;;2.20;;
59374;SDS011;45172;55.006;73.460;2023-05-16T09:35:19;18.38;;;2.42;;
59374;SDS011;45172;55.006;73.460;2023-05-16T09:37:46;29.05;;;2.45;;
59374;SDS011;45172;55.006;73.460;2023-05-16T09:40:13;7.93;;;1.65;;
59374;SDS011;45172;55.006;73.460;2023-05-16T09:42:41;11.73;;;1.63;;
59374;SDS011;45172;55.006;73.460;2023-05-16T09:45:12;13.30;;;1.13;;
59374;SDS011;45172;55.006;73.460;2023-05-16T09:47:38;13.52;;;1.38;;
59374;SDS011;45172;55.006;73.460;2023-05-16T09:50:12;16.63;;;1.40;;
59374;SDS011;45172;55.006;73.460;2023-05-16T09:52:40;14.40;;;1.30;;
59374;SDS011;45172;55.006;73.460;2023-05-16T09:55:07;5.78;;;1.17;;
59374;SDS011;45172;55.006;73.460;2023-05-16T09:57:37;15.55;;;1.98;;
59374;SDS011;45172;55.006;73.460;2023-05-16T10:00:09;8.02;;;1.30;;
59374;SDS011;45172;55.006;73.460;2023-05-16T10:02:36;6.50;;;1.30;;
59374;SDS011;45172;55.006;73.460;2023-05-16T10:05:07;7.68;;;1.10;;
59374;SDS011;45172;55.006;73.460;2023-05-16T10:07:33;7.32;;;1.23;;
59374;SDS011;45172;55.006;73.460;2023-05-16T10:10:05;7.38;;;1.15;;
59374;SDS011;45172;55.006;73.460;2023-05-16T10:12:32;5.57;;;1.30;;
59374;SDS011;45172;55.006;73.460;2023-05-16T10:15:03;13.00;;;1.27;;
59374;SDS011;45172;55.006;73.460;2023-05-16T10:17:32;18.42;;;1.30;;
59374;SDS011;45172;55.006;73.460;2023-05-16T10:20:02;15.27;;;1.48;;
59374;SDS011;45172;55.006;73.460;2023-05-16T10:22:33;15.13;;;2.20;;
59374;SDS011;45172;55.006;73.460;2023-05-16T10:27:37;19.35;;;1.90;;
59374;SDS011;45172;55.006;73.460;2023-05-16T10:30:05;6.47;;;1.50;;
59374;SDS011;45172;55.006;73.460;2023-05-16T10:32:34;9.50;;;1.60;;
59374;SDS011;45172;55.006;73.460;2023-05-16T10:35:05;7.60;;;1.95;;
59374;SDS011;45172;55.006;73.460;2023-05-16T10:37:32;17.27;;;1.40;;
59374;SDS011;45172;55.006;73.460;2023-05-16T10:40:01;10.45;;;1.48;;
59374;SDS011;45172;55.006;73.460;2023-05-16T10:42:31;11.90;;;1.55;;
59374;SDS011;45172;55.006;73.460;2023-05-16T10:45:16;6.60;;;1.38;;
59374;SDS011;45172;55.006;73.460;2023-05-16T10:47:59;7.72;;;1.40;;
59374;SDS011;45172;55.006;73.460;2023-05-16T10:53:11;12.90;;;1.55;;
59374;SDS011;45172;55.006;73.460;2023-05-16T11:06:24;10.45;;;3.17;;
59374;SDS011;45172;55.006;73.460;2023-05-16T11:11:44;42.72;;;37.60;;
59374;SDS011;45172;55.006;73.460;2023-05-16T11:14:20;16.40;;;5.95;;
59374;SDS011;45172;55.006;73.460;2023-05-16T11:16:48;13.25;;;4.55;;
59374;SDS011;45172;55.006;73.460;2023-05-16T11:22:08;11.02;;;2.70;;
59374;SDS011;45172;55.006;73.460;2023-05-16T11:24:56;12.82;;;2.60;;
59374;SDS011;45172;55.006;73.460;2023-05-16T11:27:26;18.02;;;4.53;;
59374;SDS011;45172;55.006;73.460;2023-05-16T11:29:53;15.52;;;4.90;;
59374;SDS011;45172;55.006;73.460;2023-05-16T11:32:36;15.50;;;8.53;;
59374;SDS011;45172;55.006;73.460;2023-05-16T11:35:06;15.63;;;6.82;;
59374;SDS011;45172;55.006;73.460;2023-05-16T11:37:38;19.73;;;11.10;;
59374;SDS011;45172;55.006;73.460;2023-05-16T11:40:05;16.65;;;8.98;;
59374;SDS011;45172;55.006;73.460;2023-05-16T11:42:35;13.20;;;8.50;;
59374;SDS011;45172;55.006;73.460;2023-05-16T11:47:37;66.13;;;52.30;;
59374;SDS011;45172;55.006;73.460;2023-05-16T11:50:10;33.88;;;21.85;;
59374;SDS011;45172;55.006;73.460;2023-05-16T11:52:45;56.45;;;33.63;;
59374;SDS011;45172;55.006;73.460;2023-05-16T11:55:12;20.63;;;12.32;;
59374;SDS011;45172;55.006;73.460;2023-05-16T11:57:39;29.30;;;18.85;;
59374;SDS011;45172;55.006;73.460;2023-05-16T12:00:15;20.15;;;12.60;;
59374;SDS011;45172;55.006;73.460;2023-05-16T12:02:44;27.35;;;13.98;;
59374;SDS011;45172;55.006;73.460;2023-05-16T12:05:14;17.40;;;9.63;;
59374;SDS011;45172;55.006;73.460;2023-05-16T12:07:42;14.60;;;8.73;;
59374;SDS011;45172;55.006;73.460;2023-05-16T12:10:15;19.88;;;9.45;;
59374;SDS011;45172;55.006;73.460;2023-05-16T12:12:43;19.38;;;9.80;;
59374;SDS011;45172;55.006;73.460;2023-05-16T12:15:10;21.42;;;11.13;;
59374;SDS011;45172;55.006;73.460;2023-05-16T12:17:39;21.52;;;11.30;;
59374;SDS011;45172;55.006;73.460;2023-05-16T12:20:07;21.45;;;11.32;;
59374;SDS011;45172;55.006;73.460;2023-05-16T12:22:40;18.63;;;12.35;;
59374;SDS011;45172;55.006;73.460;2023-05-16T12:28:06;94.35;;;79.95;;
59374;SDS011;45172;55.006;73.460;2023-05-16T12:30:33;36.30;;;24.00;;
59374;SDS011;45172;55.006;73.460;2023-05-16T12:33:00;29.38;;;15.93;;
59374;SDS011;45172;55.006;73.460;2023-05-16T12:35:34;24.95;;;14.02;;
59374;SDS011;45172;55.006;73.460;2023-05-16T12:38:03;21.83;;;14.27;;
59374;SDS011;45172;55.006;73.460;2023-05-16T12:40:31;18.35;;;13.55;;
59374;SDS011;45172;55.006;73.460;2023-05-16T12:42:58;29.23;;;17.15;;
59374;SDS011;45172;55.006;73.460;2023-05-16T12:45:26;31.95;;;19.77;;
59374;SDS011;45172;55.006;73.460;2023-05-16T12:47:53;28.08;;;14.02;;
59374;SDS011;45172;55.006;73.460;2023-05-16T12:50:19;21.42;;;13.05;;
59374;SDS011;45172;55.006;73.460;2023-05-16T12:52:47;20.15;;;12.48;;
59374;SDS011;45172;55.006;73.460;2023-05-16T12:55:17;19.98;;;12.15;;
59374;SDS011;45172;55.006;73.460;2023-05-16T12:57:44;18.67;;;12.43;;
59374;SDS011;45172;55.006;73.460;2023-05-16T13:00:15;23.35;;;12.55;;
59374;SDS011;45172;55.006;73.460;2023-05-16T13:02:43;21.35;;;12.07;;
59374;SDS011;45172;55.006;73.460;2023-05-16T13:05:10;23.80;;;13.02;;
59374;SDS011;45172;55.006;73.460;2023-05-16T13:07:37;30.80;;;12.65;;
59374;SDS011;45172;55.006;73.460;2023-05-16T13:10:07;27.48;;;12.50;;
59374;SDS011;45172;55.006;73.460;2023-05-16T13:12:38;26.65;;;12.90;;
59374;SDS011;45172;55.006;73.460;2023-05-16T13:15:06;23.83;;;13.10;;
59374;SDS011;45172;55.006;73.460;2023-05-16T13:17:33;27.95;;;15.98;;
59374;SDS011;45172;55.006;73.460;2023-05-16T13:19:59;40.28;;;19.30;;
59374;SDS011;45172;55.006;73.460;2023-05-16T13:22:26;29.27;;;18.23;;
59374;SDS011;45172;55.006;73.460;2023-05-16T13:24:52;39.35;;;18.13;;
59374;SDS011;45172;55.006;73.460;2023-05-16T13:27:18;32.78;;;18.50;;
59374;SDS011;45172;55.006;73.460;2023-05-16T13:29:44;31.25;;;19.10;;
59374;SDS011;45172;55.006;73.460;2023-05-16T13:32:10;27.45;;;17.30;;
59374;SDS011;45172;55.006;73.460;2023-05-16T13:34:36;21.60;;;13.18;;
59374;SDS011;45172;55.006;73.460;2023-05-16T13:37:03;20.33;;;12.63;;
59374;SDS011;45172;55.006;73.460;2023-05-16T13:39:29;24.10;;;13.88;;
59374;SDS011;45172;55.006;73.460;2023-05-16T13:41:55;27.20;;;12.68;;
59374;SDS011;45172;55.006;73.460;2023-05-16T13:44:21;21.02;;;12.07;;
59374;SDS011;45172;55.006;73.460;2023-05-16T13:46:47;24.60;;;13.80;;
59374;SDS011;45172;55.006;73.460;2023-05-16T13:49:13;29.92;;;17.70;;
59374;SDS011;45172;55.006;73.460;2023-05-16T13:51:40;25.38;;;12.20;;
59374;SDS011;45172;55.006;73.460;2023-05-16T13:54:06;27.92;;;17.13;;
59374;SDS011;45172;55.006;73.460;2023-05-16T13:56:32;26.08;;;10.82;;
59374;SDS011;45172;55.006;73.460;2023-05-16T13:58:58;30.45;;;22.52;;
59374;SDS011;45172;55.006;73.460;2023-05-16T14:01:24;27.92;;;14.80;;
59374;SDS011;45172;55.006;73.460;2023-05-16T14:03:50;60.80;;;39.65;;
59374;SDS011;45172;55.006;73.460;2023-05-16T14:06:16;22.40;;;14.93;;
59374;SDS011;45172;55.006;73.460;2023-05-16T14:08:42;22.13;;;14.20;;
59374;SDS011;45172;55.006;73.460;2023-05-16T14:11:11;26.73;;;14.52;;
59374;SDS011;45172;55.006;73.460;2023-05-16T14:13:38;13.35;;;6.82;;
59374;SDS011;45172;55.006;73.460;2023-05-16T14:16:05;12.23;;;5.45;;
59374;SDS011;45172;55.006;73.460;2023-05-16T14:18:31;12.35;;;7.63;;
59374;SDS011;45172;55.006;73.460;2023-05-16T14:20:57;26.55;;;18.80;;
59374;SDS011;45172;55.006;73.460;2023-05-16T14:23:23;29.27;;;19.70;;
59374;SDS011;45172;55.006;73.460;2023-05-16T14:25:50;14.50;;;6.90;;
59374;SDS011;45172;55.006;73.460;2023-05-16T14:28:16;11.68;;;6.72;;
59374;SDS011;45172;55.006;73.460;2023-05-16T14:30:43;32.58;;;16.80;;
59374;SDS011;45172;55.006;73.460;2023-05-16T14:33:09;42.03;;;29.98;;
59374;SDS011;45172;55.006;73.460;2023-05-16T14:35:35;21.58;;;10.68;;
59374;SDS011;45172;55.006;73.460;2023-05-16T14:38:03;28.10;;;17.33;;
59374;SDS011;45172;55.006;73.460;2023-05-16T14:40:29;12.48;;;5.97;;
59374;SDS011;45172;55.006;73.460;2023-05-16T14:42:55;13.30;;;5.32;;
59374;SDS011;45172;55.006;73.460;2023-05-16T14:45:21;9.82;;;5.78;;
59374;SDS011;45172;55.006;73.460;2023-05-16T14:47:47;13.85;;;6.07;;
59374;SDS011;45172;55.006;73.460;2023-05-16T14:50:13;13.05;;;5.35;;
59374;SDS011;45172;55.006;73.460;2023-05-16T14:52:39;11.45;;;6.60;;
59374;SDS011;45172;55.006;73.460;2023-05-16T14:55:06;13.52;;;8.55;;
59374;SDS011;45172;55.006;73.460;2023-05-16T14:57:31;15.00;;;8.80;;
59374;SDS011;45172;55.006;73.460;2023-05-16T14:59:57;14.80;;;10.13;;
59374;SDS011;45172;55.006;73.460;2023-05-16T15:02:23;56.75;;;35.55;;
59374;SDS011;45172;55.006;73.460;2023-05-16T15:04:51;20.30;;;12.40;;
59374;SDS011;45172;55.006;73.460;2023-05-16T15:07:18;26.00;;;13.88;;
59374;SDS011;45172;55.006;73.460;2023-05-16T15:09:44;18.70;;;11.90;;
59374;SDS011;45172;55.006;73.460;2023-05-16T15:12:10;21.10;;;10.13;;